sensor_id;sensor_type;location;lat;lon;timestamp;pressure;altitude;pressure_sealevel;temperature;humidity
57885;BME280;43703;51.060;-0.086;2023-01-30T00:01:00;100804.66;;;3.42;79.19
57885;BME280;43703;51.060;-0.086;2023-01-30T00:03:24;100803.89;;;3.88;79.35
57885;BME280;43703;51.060;-0.086;2023-01-30T00:05:50;100808.18;;;3.97;79.97
57885;BME280;43703;51.060;-0.086;2023-01-30T00:08:15;100804.23;;;3.35;80.96
57885;BME280;43703;51.060;-0.086;2023-01-30T00:10:39;100790.09;;;4.22;78.35
57885;BME280;43703;51.060;-0.086;2023-01-30T00:13:04;100787.08;;;4.22;78.43
57885;BME280;43703;51.060;-0.086;2023-01-30T00:15:29;100781.64;;;3.63;79.42
57885;BME280;43703;51.060;-0.086;2023-01-30T00:17:54;100778.43;;;3.17;80.05
57885;BME280;43703;51.060;-0.086;2023-01-30T00:20:19;100778.96;;;4.78;77.74
57885;BME280;43703;51.060;-0.086;2023-01-30T00:22:44;100777.19;;;3.36;80.09
57885;BME280;43703;51.060;-0.086;2023-01-30T00:25:10;100776.63;;;4.77;75.63
57885;BME280;43703;51.060;-0.086;2023-01-30T00:27:35;100775.76;;;4.32;77.30
57885;BME280;43703;51.060;-0.086;2023-01-30T00:30:00;100776.30;;;4.11;77.66
57885;BME280;43703;51.060;-0.086;2023-01-30T00:32:25;100777.00;;;4.21;77.92
57885;BME280;43703;51.060;-0.086;2023-01-30T00:34:50;100772.59;;;4.09;77.65
57885;BME280;43703;51.060;-0.086;2023-01-30T00:37:15;100752.81;;;4.77;75.62
57885;BME280;43703;51.060;-0.086;2023-01-30T00:39:40;100745.97;;;4.12;76.91
57885;BME280;43703;51.060;-0.086;2023-01-30T00:42:05;100742.05;;;3.50;79.42
57885;BME280;43703;51.060;-0.086;2023-01-30T00:44:30;100745.22;;;3.54;78.29
57885;BME280;43703;51.060;-0.086;2023-01-30T00:46:55;100749.90;;;3.15;79.28
57885;BME280;43703;51.060;-0.086;2023-01-30T00:49:20;100748.98;;;3.19;78.48
57885;BME280;43703;51.060;-0.086;2023-01-30T00:51:45;100750.51;;;3.90;77.41
57885;BME280;43703;51.060;-0.086;2023-01-30T00:54:10;100755.90;;;3.13;80.79
57885;BME280;43703;51.060;-0.086;2023-01-30T00:56:35;100749.51;;;3.37;81.05
57885;BME280;43703;51.060;-0.086;2023-01-30T00:59:00;100759.03;;;3.30;81.76
57885;BME280;43703;51.060;-0.086;2023-01-30T01:01:25;100764.07;;;3.68;77.96
57885;BME280;43703;51.060;-0.086;2023-01-30T01:03:50;100769.33;;;3.16;79.53
57885;BME280;43703;51.060;-0.086;2023-01-30T01:06:15;100764.39;;;3.43;79.07
57885;BME280;43703;51.060;-0.086;2023-01-30T01:08:40;100763.15;;;3.67;77.90
57885;BME280;43703;51.060;-0.086;2023-01-30T01:11:05;100765.32;;;2.80;82.36
57885;BME280;43703;51.060;-0.086;2023-01-30T01:13:30;100762.51;;;3.69;79.37
57885;BME280;43703;51.060;-0.086;2023-01-30T01:15:56;100761.15;;;3.45;78.97
57885;BME280;43703;51.060;-0.086;2023-01-30T01:18:20;100763.55;;;4.02;78.56
57885;BME280;43703;51.060;-0.086;2023-01-30T01:20:45;100764.86;;;3.56;78.14
57885;BME280;43703;51.060;-0.086;2023-01-30T01:23:11;100764.62;;;3.34;78.80
57885;BME280;43703;51.060;-0.086;2023-01-30T01:25:36;100760.95;;;3.23;79.47
57885;BME280;43703;51.060;-0.086;2023-01-30T01:28:01;100756.75;;;3.61;79.12
57885;BME280;43703;51.060;-0.086;2023-01-30T01:30:26;100753.47;;;3.59;77.96
57885;BME280;43703;51.060;-0.086;2023-01-30T01:32:51;100751.95;;;4.82;76.52
57885;BME280;43703;51.060;-0.086;2023-01-30T01:35:16;100756.84;;;4.27;76.37
57885;BME280;43703;51.060;-0.086;2023-01-30T01:37:41;100759.79;;;3.49;80.05
57885;BME280;43703;51.060;-0.086;2023-01-30T01:40:14;100750.36;;;4.19;78.48
57885;BME280;43703;51.060;-0.086;2023-01-30T01:42:35;100749.47;;;3.46;80.56
57885;BME280;43703;51.060;-0.086;2023-01-30T01:45:01;100753.76;;;3.97;78.26
57885;BME280;43703;51.060;-0.086;2023-01-30T01:47:22;100754.06;;;4.40;76.97
57885;BME280;43703;51.060;-0.086;2023-01-30T01:49:48;100757.01;;;4.00;77.74
57885;BME280;43703;51.060;-0.086;2023-01-30T01:52:14;100751.27;;;4.23;76.67
57885;BME280;43703;51.060;-0.086;2023-01-30T01:54:38;100745.27;;;4.16;76.33
57885;BME280;43703;51.060;-0.086;2023-01-30T01:57:07;100742.14;;;4.44;75.71
57885;BME280;43703;51.060;-0.086;2023-01-30T01:59:31;100738.73;;;4.98;75.12
57885;BME280;43703;51.060;-0.086;2023-01-30T02:01:55;100743.85;;;3.64;77.74
57885;BME280;43703;51.060;-0.086;2023-01-30T02:04:17;100743.19;;;3.45;79.87
57885;BME280;43703;51.060;-0.086;2023-01-30T02:06:42;100739.07;;;4.27;76.98
57885;BME280;43703;51.060;-0.086;2023-01-30T02:09:09;100737.19;;;4.43;77.54
57885;BME280;43703;51.060;-0.086;2023-01-30T02:11:38;100733.10;;;3.70;77.67
57885;BME280;43703;51.060;-0.086;2023-01-30T02:13:59;100728.04;;;3.72;78.80
57885;BME280;43703;51.060;-0.086;2023-01-30T02:16:22;100732.50;;;3.81;78.56
57885;BME280;43703;51.060;-0.086;2023-01-30T02:18:47;100731.93;;;3.41;80.67
57885;BME280;43703;51.060;-0.086;2023-01-30T02:28:37;100717.54;;;2.81;83.53
57885;BME280;43703;51.060;-0.086;2023-01-30T02:33:21;100706.81;;;3.07;82.65
57885;BME280;43703;51.060;-0.086;2023-01-30T02:35:50;100707.52;;;3.43;81.33
57885;BME280;43703;51.060;-0.086;2023-01-30T02:38:18;100712.01;;;3.17;81.42
57885;BME280;43703;51.060;-0.086;2023-01-30T02:40:40;100713.52;;;3.25;80.92
57885;BME280;43703;51.060;-0.086;2023-01-30T02:43:03;100711.59;;;3.70;81.19
57885;BME280;43703;51.060;-0.086;2023-01-30T02:45:28;100712.94;;;3.41;81.55
57885;BME280;43703;51.060;-0.086;2023-01-30T02:47:52;100708.46;;;3.52;80.41
57885;BME280;43703;51.060;-0.086;2023-01-30T02:50:16;100706.81;;;2.82;82.13
57885;BME280;43703;51.060;-0.086;2023-01-30T02:52:39;100701.33;;;3.67;79.84
57885;BME280;43703;51.060;-0.086;2023-01-30T02:55:08;100700.35;;;3.51;80.75
57885;BME280;43703;51.060;-0.086;2023-01-30T02:57:29;100687.78;;;3.29;79.84
57885;BME280;43703;51.060;-0.086;2023-01-30T02:59:56;100692.82;;;3.31;80.00
57885;BME280;43703;51.060;-0.086;2023-01-30T03:02:32;100697.58;;;3.60;80.52
57885;BME280;43703;51.060;-0.086;2023-01-30T03:04:53;100701.17;;;3.32;82.01
57885;BME280;43703;51.060;-0.086;2023-01-30T03:07:19;100704.22;;;3.39;81.45
57885;BME280;43703;51.060;-0.086;2023-01-30T03:09:42;100699.05;;;4.02;81.02
57885;BME280;43703;51.060;-0.086;2023-01-30T03:12:04;100703.10;;;4.30;79.34
57885;BME280;43703;51.060;-0.086;2023-01-30T03:14:26;100708.76;;;3.70;83.10
57885;BME280;43703;51.060;-0.086;2023-01-30T03:16:51;100712.53;;;3.64;84.23
57885;BME280;43703;51.060;-0.086;2023-01-30T03:19:14;100713.04;;;3.35;83.00
57885;BME280;43703;51.060;-0.086;2023-01-30T03:21:40;100713.39;;;3.55;81.56
57885;BME280;43703;51.060;-0.086;2023-01-30T03:24:05;100716.78;;;3.10;82.84
57885;BME280;43703;51.060;-0.086;2023-01-30T03:26:32;100717.92;;;3.51;81.62
57885;BME280;43703;51.060;-0.086;2023-01-30T03:28:55;100721.02;;;3.30;82.95
57885;BME280;43703;51.060;-0.086;2023-01-30T03:31:20;100725.41;;;3.92;80.73
57885;BME280;43703;51.060;-0.086;2023-01-30T03:33:45;100727.62;;;3.98;81.20
57885;BME280;43703;51.060;-0.086;2023-01-30T03:36:10;100723.61;;;3.51;80.96
57885;BME280;43703;51.060;-0.086;2023-01-30T03:38:35;100725.55;;;4.79;78.48
57885;BME280;43703;51.060;-0.086;2023-01-30T03:41:00;100722.10;;;4.44;79.67
57885;BME280;43703;51.060;-0.086;2023-01-30T03:43:26;100726.34;;;4.28;78.83
57885;BME280;43703;51.060;-0.086;2023-01-30T03:45:51;100733.66;;;3.71;81.97
57885;BME280;43703;51.060;-0.086;2023-01-30T03:48:16;100734.34;;;3.28;82.69
57885;BME280;43703;51.060;-0.086;2023-01-30T03:50:42;100734.88;;;3.73;81.89
57885;BME280;43703;51.060;-0.086;2023-01-30T03:53:06;100737.69;;;3.95;81.54
57885;BME280;43703;51.060;-0.086;2023-01-30T03:55:31;100740.07;;;4.03;81.28
57885;BME280;43703;51.060;-0.086;2023-01-30T03:57:56;100743.34;;;4.21;80.13
57885;BME280;43703;51.060;-0.086;2023-01-30T04:00:21;100745.34;;;4.18;81.43
57885;BME280;43703;51.060;-0.086;2023-01-30T04:02:46;100743.10;;;3.90;81.68
57885;BME280;43703;51.060;-0.086;2023-01-30T04:05:11;100740.44;;;4.20;80.31
57885;BME280;43703;51.060;-0.086;2023-01-30T04:07:36;100732.25;;;4.96;79.24
57885;BME280;43703;51.060;-0.086;2023-01-30T04:10:01;100733.11;;;4.48;80.09
57885;BME280;43703;51.060;-0.086;2023-01-30T04:12:26;100728.17;;;4.05;80.34
57885;BME280;43703;51.060;-0.086;2023-01-30T04:14:51;100720.85;;;4.43;80.60
57885;BME280;43703;51.060;-0.086;2023-01-30T04:17:16;100718.32;;;4.58;80.36
57885;BME280;43703;51.060;-0.086;2023-01-30T04:19:42;100724.09;;;4.24;81.05
57885;BME280;43703;51.060;-0.086;2023-01-30T04:22:06;100728.64;;;3.97;81.94
57885;BME280;43703;51.060;-0.086;2023-01-30T04:24:31;100719.42;;;3.61;83.78
57885;BME280;43703;51.060;-0.086;2023-01-30T04:26:57;100726.03;;;3.48;82.61
57885;BME280;43703;51.060;-0.086;2023-01-30T04:29:22;100729.13;;;3.62;83.55
57885;BME280;43703;51.060;-0.086;2023-01-30T04:31:47;100726.78;;;4.38;81.48
57885;BME280;43703;51.060;-0.086;2023-01-30T04:34:12;100729.07;;;4.48;80.45
57885;BME280;43703;51.060;-0.086;2023-01-30T04:36:38;100733.93;;;4.68;79.63
57885;BME280;43703;51.060;-0.086;2023-01-30T04:39:02;100736.26;;;4.67;78.90
57885;BME280;43703;51.060;-0.086;2023-01-30T04:41:27;100731.50;;;4.09;80.71
57885;BME280;43703;51.060;-0.086;2023-01-30T04:43:53;100735.71;;;4.08;81.93
57885;BME280;43703;51.060;-0.086;2023-01-30T04:46:18;100736.77;;;5.39;78.44
57885;BME280;43703;51.060;-0.086;2023-01-30T04:48:43;100737.45;;;5.04;77.82
57885;BME280;43703;51.060;-0.086;2023-01-30T04:51:08;100744.60;;;5.02;77.29
57885;BME280;43703;51.060;-0.086;2023-01-30T04:53:33;100751.99;;;4.35;77.91
57885;BME280;43703;51.060;-0.086;2023-01-30T04:55:58;100744.10;;;5.28;76.92
57885;BME280;43703;51.060;-0.086;2023-01-30T04:58:23;100742.98;;;4.69;78.91
57885;BME280;43703;51.060;-0.086;2023-01-30T05:00:48;100748.33;;;5.04;78.06
57885;BME280;43703;51.060;-0.086;2023-01-30T05:03:13;100753.43;;;5.06;77.16
57885;BME280;43703;51.060;-0.086;2023-01-30T05:05:38;100751.24;;;3.86;79.07
57885;BME280;43703;51.060;-0.086;2023-01-30T05:08:03;100749.84;;;4.64;77.77
57885;BME280;43703;51.060;-0.086;2023-01-30T05:10:28;100747.29;;;4.50;79.02
57885;BME280;43703;51.060;-0.086;2023-01-30T05:12:53;100746.87;;;3.90;82.10
57885;BME280;43703;51.060;-0.086;2023-01-30T05:15:19;100747.35;;;4.47;79.28
57885;BME280;43703;51.060;-0.086;2023-01-30T05:17:44;100748.17;;;4.65;78.93
57885;BME280;43703;51.060;-0.086;2023-01-30T05:20:11;100755.21;;;4.28;80.43
57885;BME280;43703;51.060;-0.086;2023-01-30T05:22:34;100766.20;;;4.21;81.38
57885;BME280;43703;51.060;-0.086;2023-01-30T05:25:00;100770.78;;;4.49;79.95
57885;BME280;43703;51.060;-0.086;2023-01-30T05:27:25;100768.52;;;5.35;77.52
57885;BME280;43703;51.060;-0.086;2023-01-30T05:29:49;100767.94;;;5.22;76.50
57885;BME280;43703;51.060;-0.086;2023-01-30T05:32:16;100770.81;;;5.53;75.53
57885;BME280;43703;51.060;-0.086;2023-01-30T05:34:40;100764.08;;;4.29;77.85
57885;BME280;43703;51.060;-0.086;2023-01-30T05:37:05;100763.72;;;4.20;77.31
57885;BME280;43703;51.060;-0.086;2023-01-30T05:39:30;100767.26;;;3.66;80.67
57885;BME280;43703;51.060;-0.086;2023-01-30T05:41:55;100773.59;;;3.73;79.68
57885;BME280;43703;51.060;-0.086;2023-01-30T05:44:20;100776.86;;;3.15;81.50
57885;BME280;43703;51.060;-0.086;2023-01-30T05:46:45;100770.30;;;3.23;82.08
57885;BME280;43703;51.060;-0.086;2023-01-30T05:49:10;100767.75;;;4.05;80.13
57885;BME280;43703;51.060;-0.086;2023-01-30T05:51:38;100765.63;;;3.81;78.63
57885;BME280;43703;51.060;-0.086;2023-01-30T05:54:01;100763.62;;;4.28;77.86
57885;BME280;43703;51.060;-0.086;2023-01-30T05:56:26;100764.16;;;3.77;79.20
57885;BME280;43703;51.060;-0.086;2023-01-30T05:58:51;100766.64;;;3.72;79.00
57885;BME280;43703;51.060;-0.086;2023-01-30T06:01:16;100763.58;;;3.10;80.85
57885;BME280;43703;51.060;-0.086;2023-01-30T06:03:41;100759.83;;;2.98;81.27
57885;BME280;43703;51.060;-0.086;2023-01-30T06:06:07;100766.01;;;2.74;81.52
57885;BME280;43703;51.060;-0.086;2023-01-30T06:08:32;100769.33;;;3.65;80.89
57885;BME280;43703;51.060;-0.086;2023-01-30T06:10:59;100775.44;;;3.26;81.57
57885;BME280;43703;51.060;-0.086;2023-01-30T06:13:22;100784.20;;;2.73;82.21
57885;BME280;43703;51.060;-0.086;2023-01-30T06:15:47;100773.68;;;3.61;80.99
57885;BME280;43703;51.060;-0.086;2023-01-30T06:18:12;100775.40;;;3.13;81.33
57885;BME280;43703;51.060;-0.086;2023-01-30T06:20:37;100780.99;;;2.51;82.86
57885;BME280;43703;51.060;-0.086;2023-01-30T06:23:02;100784.58;;;2.83;85.24
57885;BME280;43703;51.060;-0.086;2023-01-30T06:25:27;100785.33;;;3.11;83.40
57885;BME280;43703;51.060;-0.086;2023-01-30T06:27:52;100788.71;;;2.71;82.56
57885;BME280;43703;51.060;-0.086;2023-01-30T06:30:18;100786.83;;;3.17;82.95
57885;BME280;43703;51.060;-0.086;2023-01-30T06:32:44;100785.94;;;3.52;80.81
57885;BME280;43703;51.060;-0.086;2023-01-30T06:35:09;100796.47;;;2.99;83.42
57885;BME280;43703;51.060;-0.086;2023-01-30T06:37:34;100805.11;;;3.23;81.04
57885;BME280;43703;51.060;-0.086;2023-01-30T06:39:59;100809.94;;;3.22;81.98
57885;BME280;43703;51.060;-0.086;2023-01-30T06:42:24;100815.75;;;3.75;79.74
57885;BME280;43703;51.060;-0.086;2023-01-30T06:44:49;100818.56;;;3.98;79.18
57885;BME280;43703;51.060;-0.086;2023-01-30T06:47:14;100831.22;;;3.55;78.51
57885;BME280;43703;51.060;-0.086;2023-01-30T06:49:39;100840.03;;;4.06;77.17
57885;BME280;43703;51.060;-0.086;2023-01-30T06:52:05;100848.61;;;4.47;75.69
57885;BME280;43703;51.060;-0.086;2023-01-30T06:54:30;100849.87;;;4.85;74.95
57885;BME280;43703;51.060;-0.086;2023-01-30T06:56:55;100854.66;;;4.30;72.96
57885;BME280;43703;51.060;-0.086;2023-01-30T06:59:20;100858.98;;;4.51;73.67
57885;BME280;43703;51.060;-0.086;2023-01-30T07:01:45;100861.68;;;4.89;72.17
57885;BME280;43703;51.060;-0.086;2023-01-30T07:04:10;100867.69;;;3.56;76.10
57885;BME280;43703;51.060;-0.086;2023-01-30T07:06:35;100876.62;;;3.70;77.55
57885;BME280;43703;51.060;-0.086;2023-01-30T07:09:00;100883.15;;;2.99;80.40
57885;BME280;43703;51.060;-0.086;2023-01-30T07:11:25;100891.49;;;3.64;77.67
57885;BME280;43703;51.060;-0.086;2023-01-30T07:13:50;100891.55;;;3.66;78.39
57885;BME280;43703;51.060;-0.086;2023-01-30T07:16:15;100889.78;;;3.72;79.81
57885;BME280;43703;51.060;-0.086;2023-01-30T07:18:40;100886.97;;;3.81;78.76
57885;BME280;43703;51.060;-0.086;2023-01-30T07:21:06;100885.03;;;3.40;79.32
57885;BME280;43703;51.060;-0.086;2023-01-30T07:23:31;100879.98;;;3.52;77.90
57885;BME280;43703;51.060;-0.086;2023-01-30T07:25:56;100882.35;;;3.42;78.14
57885;BME280;43703;51.060;-0.086;2023-01-30T07:28:21;100886.63;;;3.53;79.28
57885;BME280;43703;51.060;-0.086;2023-01-30T07:30:46;100890.17;;;2.76;79.66
57885;BME280;43703;51.060;-0.086;2023-01-30T07:33:12;100905.06;;;3.15;79.57
57885;BME280;43703;51.060;-0.086;2023-01-30T07:35:37;100905.38;;;2.73;78.87
57885;BME280;43703;51.060;-0.086;2023-01-30T07:38:02;100918.49;;;3.17;80.03
57885;BME280;43703;51.060;-0.086;2023-01-30T07:40:27;100926.01;;;3.48;76.51
57885;BME280;43703;51.060;-0.086;2023-01-30T07:42:57;100928.64;;;2.95;78.91
57885;BME280;43703;51.060;-0.086;2023-01-30T07:45:17;100928.32;;;2.96;76.32
57885;BME280;43703;51.060;-0.086;2023-01-30T07:47:42;100924.04;;;4.35;72.69
57885;BME280;43703;51.060;-0.086;2023-01-30T07:50:08;100933.66;;;4.22;72.99
57885;BME280;43703;51.060;-0.086;2023-01-30T07:52:33;100935.00;;;4.47;70.62
57885;BME280;43703;51.060;-0.086;2023-01-30T07:54:59;100939.16;;;4.36;72.05
57885;BME280;43703;51.060;-0.086;2023-01-30T07:57:24;100937.72;;;3.74;73.15
57885;BME280;43703;51.060;-0.086;2023-01-30T07:59:49;100939.05;;;3.96;71.49
57885;BME280;43703;51.060;-0.086;2023-01-30T08:02:15;100944.80;;;4.00;70.89
57885;BME280;43703;51.060;-0.086;2023-01-30T08:04:40;100948.23;;;4.30;69.93
57885;BME280;43703;51.060;-0.086;2023-01-30T08:07:06;100941.36;;;4.92;68.16
57885;BME280;43703;51.060;-0.086;2023-01-30T08:09:32;100949.80;;;4.96;67.55
57885;BME280;43703;51.060;-0.086;2023-01-30T08:11:56;100957.65;;;4.47;66.69
57885;BME280;43703;51.060;-0.086;2023-01-30T08:14:21;100962.62;;;4.62;67.35
57885;BME280;43703;51.060;-0.086;2023-01-30T08:16:46;100952.75;;;4.34;66.07
57885;BME280;43703;51.060;-0.086;2023-01-30T08:19:12;100960.95;;;4.51;66.57
57885;BME280;43703;51.060;-0.086;2023-01-30T08:21:37;100971.64;;;3.88;65.68
57885;BME280;43703;51.060;-0.086;2023-01-30T08:24:02;100975.65;;;4.83;66.76
57885;BME280;43703;51.060;-0.086;2023-01-30T08:26:27;100975.24;;;3.97;67.86
57885;BME280;43703;51.060;-0.086;2023-01-30T08:28:53;100977.63;;;3.89;66.90
57885;BME280;43703;51.060;-0.086;2023-01-30T08:31:18;100968.96;;;4.60;67.01
57885;BME280;43703;51.060;-0.086;2023-01-30T08:33:43;100973.97;;;3.62;64.97
57885;BME280;43703;51.060;-0.086;2023-01-30T08:36:09;100974.15;;;3.93;67.87
57885;BME280;43703;51.060;-0.086;2023-01-30T08:38:33;100970.73;;;4.75;66.73
57885;BME280;43703;51.060;-0.086;2023-01-30T08:40:58;100972.19;;;5.06;65.46
57885;BME280;43703;51.060;-0.086;2023-01-30T08:43:24;100973.25;;;5.35;66.32
57885;BME280;43703;51.060;-0.086;2023-01-30T08:45:52;100983.44;;;4.89;66.08
57885;BME280;43703;51.060;-0.086;2023-01-30T08:48:15;100995.59;;;3.37;65.87
57885;BME280;43703;51.060;-0.086;2023-01-30T08:50:39;100999.52;;;5.08;66.41
57885;BME280;43703;51.060;-0.086;2023-01-30T08:53:04;101010.90;;;4.42;63.70
57885;BME280;43703;51.060;-0.086;2023-01-30T08:55:29;101008.57;;;4.50;65.15
57885;BME280;43703;51.060;-0.086;2023-01-30T08:57:55;101017.76;;;4.15;64.10
57885;BME280;43703;51.060;-0.086;2023-01-30T09:00:20;101023.07;;;3.94;64.03
57885;BME280;43703;51.060;-0.086;2023-01-30T09:02:44;101031.84;;;4.27;62.88
57885;BME280;43703;51.060;-0.086;2023-01-30T09:05:09;101034.23;;;4.70;64.21
57885;BME280;43703;51.060;-0.086;2023-01-30T09:07:34;101038.41;;;4.99;64.90
57885;BME280;43703;51.060;-0.086;2023-01-30T09:09:59;101034.65;;;3.64;63.49
57885;BME280;43703;51.060;-0.086;2023-01-30T09:12:25;101029.06;;;3.83;64.02
57885;BME280;43703;51.060;-0.086;2023-01-30T09:14:49;101032.31;;;3.55;62.67
57885;BME280;43703;51.060;-0.086;2023-01-30T09:17:15;101039.87;;;4.66;63.70
57885;BME280;43703;51.060;-0.086;2023-01-30T09:19:40;101040.63;;;3.49;65.94
57885;BME280;43703;51.060;-0.086;2023-01-30T09:22:06;101035.92;;;3.16;65.16
57885;BME280;43703;51.060;-0.086;2023-01-30T09:24:30;101043.03;;;3.59;65.14
57885;BME280;43703;51.060;-0.086;2023-01-30T09:26:56;101046.55;;;3.40;67.42
57885;BME280;43703;51.060;-0.086;2023-01-30T09:29:20;101051.40;;;5.14;63.04
57885;BME280;43703;51.060;-0.086;2023-01-30T09:31:45;101051.23;;;4.16;64.62
57885;BME280;43703;51.060;-0.086;2023-01-30T09:34:10;101045.75;;;5.17;64.31
57885;BME280;43703;51.060;-0.086;2023-01-30T09:36:36;101040.83;;;4.69;61.65
57885;BME280;43703;51.060;-0.086;2023-01-30T09:39:01;101042.14;;;3.88;63.07
57885;BME280;43703;51.060;-0.086;2023-01-30T09:41:37;101044.04;;;5.87;64.95
57885;BME280;43703;51.060;-0.086;2023-01-30T09:44:02;101047.66;;;5.94;59.79
57885;BME280;43703;51.060;-0.086;2023-01-30T09:46:25;101047.70;;;7.10;61.63
57885;BME280;43703;51.060;-0.086;2023-01-30T09:48:49;101055.92;;;7.83;58.82
57885;BME280;43703;51.060;-0.086;2023-01-30T09:51:14;101060.13;;;5.30;58.12
57885;BME280;43703;51.060;-0.086;2023-01-30T09:53:35;101058.38;;;7.23;61.81
57885;BME280;43703;51.060;-0.086;2023-01-30T09:55:57;101052.52;;;6.09;55.94
57885;BME280;43703;51.060;-0.086;2023-01-30T09:58:23;101062.34;;;7.00;54.99
57885;BME280;43703;51.060;-0.086;2023-01-30T10:00:49;101068.28;;;6.65;54.19
57885;BME280;43703;51.060;-0.086;2023-01-30T10:03:14;101083.22;;;8.49;58.87
57885;BME280;43703;51.060;-0.086;2023-01-30T10:05:41;101076.47;;;7.77;52.63
57885;BME280;43703;51.060;-0.086;2023-01-30T10:10:37;101074.79;;;6.95;53.06
57885;BME280;43703;51.060;-0.086;2023-01-30T10:13:00;101072.75;;;6.51;55.18
57885;BME280;43703;51.060;-0.086;2023-01-30T10:15:27;101073.86;;;6.97;53.16
57885;BME280;43703;51.060;-0.086;2023-01-30T10:17:54;101078.89;;;8.12;52.47
57885;BME280;43703;51.060;-0.086;2023-01-30T10:22:40;101085.37;;;10.48;51.68
57885;BME280;43703;51.060;-0.086;2023-01-30T10:25:06;101093.23;;;9.53;48.45
57885;BME280;43703;51.060;-0.086;2023-01-30T10:27:25;101088.63;;;8.69;48.98
57885;BME280;43703;51.060;-0.086;2023-01-30T10:29:53;101088.93;;;10.67;48.09
57885;BME280;43703;51.060;-0.086;2023-01-30T10:32:17;101092.27;;;10.85;48.28
57885;BME280;43703;51.060;-0.086;2023-01-30T10:34:44;101094.92;;;7.83;48.32
57885;BME280;43703;51.060;-0.086;2023-01-30T10:37:09;101086.80;;;7.29;50.95
57885;BME280;43703;51.060;-0.086;2023-01-30T10:39:37;101073.60;;;5.45;52.71
57885;BME280;43703;51.060;-0.086;2023-01-30T10:42:05;101073.08;;;5.62;53.62
57885;BME280;43703;51.060;-0.086;2023-01-30T10:44:23;101087.95;;;6.64;51.58
57885;BME280;43703;51.060;-0.086;2023-01-30T10:49:17;101093.09;;;7.32;52.74
57885;BME280;43703;51.060;-0.086;2023-01-30T10:51:48;101090.04;;;7.59;52.54
57885;BME280;43703;51.060;-0.086;2023-01-30T10:54:10;101085.43;;;7.34;53.92
57885;BME280;43703;51.060;-0.086;2023-01-30T10:56:37;101081.53;;;6.54;54.44
57885;BME280;43703;51.060;-0.086;2023-01-30T10:59:02;101091.77;;;8.15;51.59
57885;BME280;43703;51.060;-0.086;2023-01-30T11:01:24;101090.67;;;8.01;51.22
57885;BME280;43703;51.060;-0.086;2023-01-30T11:03:48;101092.72;;;7.82;49.80
57885;BME280;43703;51.060;-0.086;2023-01-30T11:06:12;101085.23;;;8.04;49.38
57885;BME280;43703;51.060;-0.086;2023-01-30T11:08:36;101078.23;;;6.37;52.12
57885;BME280;43703;51.060;-0.086;2023-01-30T11:13:29;101087.91;;;8.48;49.37
57885;BME280;43703;51.060;-0.086;2023-01-30T11:15:55;101089.86;;;7.31;53.49
57885;BME280;43703;51.060;-0.086;2023-01-30T11:18:19;101089.79;;;7.65;51.98
57885;BME280;43703;51.060;-0.086;2023-01-30T11:20:45;101085.98;;;7.79;50.92
57885;BME280;43703;51.060;-0.086;2023-01-30T11:28:01;101090.41;;;9.22;48.46
57885;BME280;43703;51.060;-0.086;2023-01-30T11:30:28;101099.87;;;9.10;49.14
57885;BME280;43703;51.060;-0.086;2023-01-30T11:32:49;101105.94;;;7.96;51.19
57885;BME280;43703;51.060;-0.086;2023-01-30T11:35:22;101102.77;;;7.82;50.17
57885;BME280;43703;51.060;-0.086;2023-01-30T11:37:40;101093.82;;;8.90;48.43
57885;BME280;43703;51.060;-0.086;2023-01-30T11:40:12;101083.94;;;7.34;51.09
57885;BME280;43703;51.060;-0.086;2023-01-30T11:42:30;101085.74;;;8.42;49.06
57885;BME280;43703;51.060;-0.086;2023-01-30T11:44:57;101089.26;;;8.89;50.19
57885;BME280;43703;51.060;-0.086;2023-01-30T11:47:22;101099.81;;;8.02;49.14
57885;BME280;43703;51.060;-0.086;2023-01-30T11:49:45;101104.16;;;8.16;50.95
57885;BME280;43703;51.060;-0.086;2023-01-30T11:52:10;101108.29;;;8.39;49.19
57885;BME280;43703;51.060;-0.086;2023-01-30T11:54:36;101102.79;;;8.09;48.34
57885;BME280;43703;51.060;-0.086;2023-01-30T11:57:01;101090.60;;;8.47;47.97
57885;BME280;43703;51.060;-0.086;2023-01-30T11:59:28;101087.61;;;8.25;47.82
57885;BME280;43703;51.060;-0.086;2023-01-30T12:01:52;101084.11;;;9.40;46.92
57885;BME280;43703;51.060;-0.086;2023-01-30T12:04:15;101092.99;;;9.15;46.86
57885;BME280;43703;51.060;-0.086;2023-01-30T12:06:42;101094.79;;;9.39;47.47
57885;BME280;43703;51.060;-0.086;2023-01-30T12:11:40;101095.22;;;10.16;45.48
57885;BME280;43703;51.060;-0.086;2023-01-30T12:14:07;101088.27;;;7.97;48.34
57885;BME280;43703;51.060;-0.086;2023-01-30T12:16:25;101094.73;;;9.20;46.72
57885;BME280;43703;51.060;-0.086;2023-01-30T12:18:54;101090.70;;;8.86;47.00
57885;BME280;43703;51.060;-0.086;2023-01-30T12:21:17;101094.82;;;8.75;46.96
57885;BME280;43703;51.060;-0.086;2023-01-30T12:23:39;101093.61;;;6.94;49.71
57885;BME280;43703;51.060;-0.086;2023-01-30T12:26:09;101093.26;;;7.97;50.30
57885;BME280;43703;51.060;-0.086;2023-01-30T12:28:34;101084.79;;;7.65;51.20
57885;BME280;43703;51.060;-0.086;2023-01-30T12:30:55;101083.25;;;7.36;51.12
57885;BME280;43703;51.060;-0.086;2023-01-30T12:33:18;101078.34;;;6.63;50.95
57885;BME280;43703;51.060;-0.086;2023-01-30T12:35:50;101083.29;;;9.06;49.14
57885;BME280;43703;51.060;-0.086;2023-01-30T12:38:17;101090.15;;;9.69;45.41
57885;BME280;43703;51.060;-0.086;2023-01-30T12:40:41;101093.52;;;8.77;46.59
57885;BME280;43703;51.060;-0.086;2023-01-30T12:43:08;101097.36;;;9.32;45.41
57885;BME280;43703;51.060;-0.086;2023-01-30T12:45:25;101101.90;;;9.47;45.21
57885;BME280;43703;51.060;-0.086;2023-01-30T12:48:02;101103.00;;;8.22;46.18
57885;BME280;43703;51.060;-0.086;2023-01-30T12:50:22;101100.97;;;9.02;45.90
57885;BME280;43703;51.060;-0.086;2023-01-30T12:52:51;101096.54;;;9.38;46.99
57885;BME280;43703;51.060;-0.086;2023-01-30T12:57:33;101114.15;;;9.52;47.83
57885;BME280;43703;51.060;-0.086;2023-01-30T13:00:02;101114.21;;;10.42;46.97
57885;BME280;43703;51.060;-0.086;2023-01-30T13:02:31;101109.87;;;9.60;47.31
57885;BME280;43703;51.060;-0.086;2023-01-30T13:04:49;101106.62;;;10.28;46.35
57885;BME280;43703;51.060;-0.086;2023-01-30T13:07:15;101100.75;;;10.95;44.86